Terminal Aerodrome Forecast
Issued by NWS

Home | Current Version | Previous Version | Text Only | Print | Product List | Glossary On
Versions: 1 2 3 4 5 6 7 8 9 10 11 12 13 14 15 16 17 18 19 20 21
470
FTUS44 KBMX 211857 AAC
TAFEET
TAF AMD
KEET 211857Z 2119/2218 14006KT 3SM RA BR BKN008 BKN040 OVC070
     FM220100 12002KT 4SM -RA BR OVC007
     FM220800 15002KT 1 1/2SM -RA BR OVC004
     FM221500 00000KT 1 1/2SM BR OVC015
     FM221700 08004KT P6SM OVC015=

USA.gov is the U.S. government's official web portal to all federal, state and local government web resources and services.